Jackson, NH (03846)

4:05 AM EDT on July 26, 2016 (GMT -0400)
Carter Notch | | Change Station

Elev 1709 ft 44.21 °N, 71.20 °W | Updated 5 minutes ago

Mostly Cloudy
Mostly Cloudy
70.6 °F
Feels Like 72 °F
N
0.0
Wind Variable Wind from East
Gusts 3.0 mph

Today
High -- | Low -- °F
--% Chance of Precip.
Yesterday
High -- | Low -- °F
Precip. -- in
Pressure 29.76 in
Visibility 10.0 miles
Clouds Mostly Cloudy 8500 ft
Heat Index 72 °F
Dew Point 64 °F
Humidity 79%
Rainfall 0.00 in
Snow Depth Not available.
5:26 AM 8:15 PM
Waning Gibbous, 57% visible
METAR KHIE 260752Z AUTO 22003KT 10SM BKN085 20/18 A2978 RMK AO2 SLP077 T02000178
Pressure 29.76 in
Visibility 10.0 miles
Clouds Mostly Cloudy 8500 ft
Heat Index 72 °F
Dew Point 64 °F
Humidity 79%
Rainfall 0.00 in
Snow Depth Not available.
5:26 AM 8:15 PM
Waning Gibbous, 57% visible
METAR KHIE 260752Z AUTO 22003KT 10SM BKN085 20/18 A2978 RMK AO2 SLP077 T02000178

10-Day Weather Forecast

Almanac

Astronomy

Jul. 26, 2016 Rise Set
Actual Time
Civil Twilight
Nautical Twilight
Astronomical Twilight
Moon
Length of Visible Light
Length of Day
Tomorrow will be .
, % of the Moon is Illuminated

Today's Extremes

State Highs State Lows

Community

WunderPhotos

Upload Photos

1,927,551 photos uploaded!

WunderBlog® & News

Nearby

Air Quality

  Air Quality AQ Index Pollutant
Not available.

Snow Depth

Station Depth Elevation

Earthquake Activity

City Distance Mag. Time & Date
Minimum magnitude displayed is 2.5.

Coastal Water Temperatures

Place Temperature

Stations

Nearby Weather Stations

Station Location Temp. Windchill Dew Point Humidity Wind Precip. Elev Updated Type
                   

Watches & Warnings

There are currently no watches in effect.